createdAt,value
2023-03-06T00:02:06.637Z,2.73
2023-03-06T00:06:13.874Z,2.73
2023-03-06T00:10:20.604Z,1.70
2023-03-06T00:14:24.111Z,4.43
2023-03-06T00:18:31.277Z,1.43
2023-03-06T00:22:36.269Z,1.77
2023-03-06T00:26:41.589Z,3.53
2023-03-06T00:30:46.251Z,1.73
2023-03-06T00:34:50.456Z,1.93
2023-03-06T00:39:11.094Z,3.10
2023-03-06T00:43:15.165Z,3.03
2023-03-06T00:47:27.874Z,1.20
2023-03-06T00:51:57.508Z,1.40
2023-03-06T00:56:02.448Z,1.90
2023-03-06T01:00:07.970Z,1.77
2023-03-06T01:04:36.531Z,3.13
2023-03-06T01:08:42.274Z,1.50
2023-03-06T01:12:47.648Z,1.83
2023-03-06T01:16:51.546Z,1.90
2023-03-06T01:21:09.309Z,2.33
2023-03-06T01:25:13.236Z,2.17
2023-03-06T01:29:18.232Z,1.60
2023-03-06T01:33:46.451Z,3.47
2023-03-06T01:37:55.123Z,3.37
2023-03-06T01:41:58.844Z,3.13
2023-03-06T01:51:41.251Z,2.47
2023-03-06T01:55:44.870Z,3.73
2023-03-06T01:59:53.292Z,2.50
2023-03-06T02:03:57.720Z,3.70
2023-03-06T02:08:04.190Z,4.93
2023-03-06T02:12:10.466Z,4.53
2023-03-06T02:16:15.133Z,3.17
2023-03-06T02:20:26.170Z,3.03
2023-03-06T02:24:42.783Z,1.87
2023-03-06T02:28:48.705Z,6.10
2023-03-06T02:33:12.776Z,5.77
2023-03-06T02:37:16.468Z,3.93
2023-03-06T02:41:20.175Z,5.23
2023-03-06T02:45:52.400Z,3.83
2023-03-06T02:49:56.068Z,5.83
2023-03-06T02:54:02.993Z,6.07
2023-03-06T02:58:06.669Z,4.87
2023-03-06T03:02:17.447Z,4.90
2023-03-06T03:06:24.906Z,5.63
2023-03-06T03:10:29.884Z,7.87
2023-03-06T03:14:35.631Z,5.17
2023-03-06T03:18:41.556Z,7.63
2023-03-06T03:22:49.631Z,10.47
2023-03-06T03:26:57.960Z,9.07
2023-03-06T03:31:04.865Z,10.97
2023-03-06T03:35:12.058Z,6.90
2023-03-06T03:39:24.288Z,10.80
2023-03-06T03:43:27.935Z,11.30
2023-03-06T03:47:32.315Z,11.57
2023-03-06T03:51:40.702Z,13.00
2023-03-06T03:55:44.569Z,12.13
2023-03-06T03:59:48.139Z,12.20
2023-03-06T04:04:02.478Z,12.13
2023-03-06T04:08:07.921Z,13.27
2023-03-06T04:12:14.256Z,11.73
2023-03-06T04:16:44.658Z,13.37
2023-03-06T04:20:48.859Z,13.77
2023-03-06T04:24:54.256Z,13.47
2023-03-06T04:29:00.255Z,12.40
2023-03-06T04:33:04.155Z,12.47
2023-03-06T04:37:13.443Z,17.20
2023-03-06T04:41:18.718Z,13.70
2023-03-06T04:45:22.499Z,15.20
2023-03-06T04:49:28.394Z,18.87
2023-03-06T04:53:33.022Z,14.67
2023-03-06T04:57:38.377Z,16.83
2023-03-06T05:01:46.115Z,15.63
2023-03-06T05:06:15.425Z,16.33
2023-03-06T05:10:34.437Z,16.10
2023-03-06T05:14:39.645Z,17.80
2023-03-06T05:18:43.203Z,17.10
2023-03-06T05:23:11.649Z,17.70
2023-03-06T05:27:16.884Z,20.87
2023-03-06T05:32:14.520Z,16.10
2023-03-06T05:36:19.735Z,18.97
2023-03-06T05:40:23.516Z,18.33
2023-03-06T05:44:38.178Z,20.57
2023-03-06T05:48:41.791Z,15.77
2023-03-06T05:52:46.858Z,17.33
2023-03-06T05:56:54.000Z,20.50
2023-03-06T06:00:58.042Z,20.07
2023-03-06T06:05:04.415Z,21.73
2023-03-06T06:09:12.283Z,17.57
2023-03-06T06:13:18.454Z,18.40
2023-03-06T06:17:22.197Z,21.70
2023-03-06T06:21:52.646Z,20.27
2023-03-06T06:26:00.521Z,20.20
2023-03-06T06:30:04.156Z,17.87
2023-03-06T06:34:08.813Z,19.93
2023-03-06T06:38:37.426Z,18.43
2023-03-06T06:43:01.022Z,19.53
2023-03-06T06:47:23.647Z,17.70
2023-03-06T06:51:28.164Z,18.10
2023-03-06T06:55:59.170Z,18.03
2023-03-06T07:00:22.245Z,16.43
2023-03-06T07:04:25.712Z,19.23
2023-03-06T07:08:29.582Z,20.70
2023-03-06T07:12:33.284Z,16.87
2023-03-06T07:16:38.379Z,16.90
2023-03-06T07:20:41.944Z,16.37
2023-03-06T07:24:45.507Z,17.30
2023-03-06T07:28:53.200Z,19.47
2023-03-06T07:33:02.102Z,14.87
2023-03-06T07:37:05.787Z,19.87
2023-03-06T07:41:13.505Z,15.07
2023-03-06T07:45:47.092Z,20.10
2023-03-06T07:50:10.729Z,13.53
2023-03-06T07:54:14.375Z,15.40
2023-03-06T07:58:17.998Z,18.80
2023-03-06T08:02:46.636Z,21.77
2023-03-06T08:12:33.915Z,17.87
2023-03-06T08:16:37.627Z,20.07
2023-03-06T08:20:42.313Z,18.10
2023-03-06T08:24:45.979Z,18.73
2023-03-06T08:28:53.115Z,17.70
2023-03-06T08:32:57.914Z,17.17
2023-03-06T08:37:01.546Z,18.80
2023-03-06T08:41:06.888Z,18.07
2023-03-06T08:45:33.825Z,16.50
2023-03-06T08:49:39.736Z,16.83
2023-03-06T08:53:44.369Z,19.00
2023-03-06T08:57:48.244Z,16.77
2023-03-06T09:01:53.382Z,15.27
2023-03-06T09:05:57.058Z,16.70
2023-03-06T09:10:00.793Z,17.33
2023-03-06T09:14:29.453Z,19.03
2023-03-06T09:18:34.769Z,20.70
2023-03-06T09:22:38.994Z,17.57
2023-03-06T09:26:46.633Z,22.03
2023-03-06T09:30:55.913Z,19.13
2023-03-06T09:35:35.027Z,14.20
2023-03-06T09:39:38.698Z,16.27
2023-03-06T09:43:46.406Z,18.30
2023-03-06T09:48:16.741Z,15.40
2023-03-06T09:52:47.702Z,14.60
2023-03-06T09:56:52.282Z,15.60
2023-03-06T10:01:07.641Z,17.70
2023-03-06T10:05:22.726Z,14.70
2023-03-06T10:09:33.803Z,14.47
2023-03-06T10:13:42.068Z,16.73
2023-03-06T10:18:12.765Z,18.57
2023-03-06T10:22:26.504Z,17.50
2023-03-06T10:26:37.525Z,21.73
2023-03-06T10:35:19.516Z,15.70
2023-03-06T10:39:24.433Z,19.87
2023-03-06T10:43:29.664Z,18.23
2023-03-06T10:47:37.101Z,17.83
2023-03-06T10:52:22.101Z,17.03
2023-03-06T10:56:32.418Z,20.60
2023-03-06T11:00:37.548Z,16.30
2023-03-06T11:05:06.372Z,15.57
2023-03-06T11:09:25.163Z,14.67
2023-03-06T11:13:31.645Z,18.53
2023-03-06T11:17:38.808Z,16.20
2023-03-06T11:21:43.611Z,18.10
2023-03-06T11:25:51.640Z,13.57
2023-03-06T11:29:57.147Z,15.67
2023-03-06T11:34:17.926Z,17.03
2023-03-06T11:38:27.013Z,15.37
2023-03-06T11:42:33.995Z,13.57
2023-03-06T11:46:41.954Z,15.67
2023-03-06T11:51:15.817Z,15.97
2023-03-06T11:55:37.857Z,15.07
2023-03-06T12:00:08.044Z,13.83
2023-03-06T12:04:51.200Z,14.97
2023-03-06T12:09:08.289Z,15.87
2023-03-06T12:13:34.829Z,15.93
2023-03-06T12:18:07.396Z,14.63
2023-03-06T12:22:33.614Z,11.47
2023-03-06T12:27:06.359Z,13.57
2023-03-06T12:37:05.913Z,14.20
2023-03-06T12:41:18.477Z,13.20
2023-03-06T12:45:45.499Z,13.73
2023-03-06T12:49:54.694Z,16.03
2023-03-06T12:54:11.413Z,13.23
2023-03-06T12:58:56.419Z,16.07
2023-03-06T13:03:27.039Z,16.07
2023-03-06T13:08:16.282Z,16.80
2023-03-06T13:12:29.665Z,16.93
2023-03-06T13:16:35.307Z,13.83
2023-03-06T13:20:44.625Z,16.27
2023-03-06T13:24:49.459Z,15.30
2023-03-06T13:28:59.887Z,17.73
2023-03-06T13:33:20.251Z,16.77
2023-03-06T13:37:55.961Z,17.80
2023-03-06T13:42:27.794Z,17.17
2023-03-06T13:46:35.468Z,18.40
2023-03-06T13:51:31.990Z,17.87
2023-03-06T13:55:59.934Z,16.87
2023-03-06T14:05:15.170Z,15.07
2023-03-06T14:09:26.452Z,16.20
2023-03-06T14:18:34.407Z,14.57
2023-03-06T14:22:38.008Z,73.03
2023-03-06T14:27:18.832Z,12.60
2023-03-06T14:31:26.483Z,13.97
2023-03-06T14:35:59.034Z,15.45
2023-03-06T14:40:02.842Z,13.60
2023-03-06T14:44:22.302Z,17.93
2023-03-06T14:48:40.068Z,12.60
2023-03-06T14:52:44.648Z,13.90
2023-03-06T14:56:53.238Z,15.27
2023-03-06T15:01:14.885Z,14.13
2023-03-06T15:10:10.704Z,12.57
2023-03-06T15:14:29.384Z,14.93
2023-03-06T15:18:35.755Z,13.87
2023-03-06T15:23:30.145Z,14.77
2023-03-06T15:27:35.368Z,13.00
2023-03-06T15:31:40.601Z,16.60
2023-03-06T15:36:07.835Z,15.83
2023-03-06T15:40:28.545Z,11.90
2023-03-06T15:44:34.386Z,14.93
2023-03-06T15:48:38.123Z,21.57
2023-03-06T15:52:46.768Z,15.77
2023-03-06T15:56:51.977Z,15.03
2023-03-06T16:01:45.046Z,15.43
2023-03-06T16:06:19.938Z,14.77
2023-03-06T16:10:25.623Z,15.07
2023-03-06T16:14:29.824Z,13.97
2023-03-06T16:18:36.822Z,15.10
2023-03-06T16:22:41.889Z,17.90
2023-03-06T16:26:48.638Z,14.93
2023-03-06T16:30:52.283Z,15.43
2023-03-06T16:34:56.024Z,15.73
2023-03-06T16:39:17.339Z,16.27
2023-03-06T16:43:20.941Z,18.23
2023-03-06T16:47:24.783Z,19.57
2023-03-06T16:51:55.931Z,18.93
2023-03-06T16:56:01.091Z,17.47
2023-03-06T17:00:06.727Z,18.80
2023-03-06T17:04:17.607Z,17.70
2023-03-06T17:08:21.358Z,27.63
2023-03-06T17:12:26.525Z,15.17
2023-03-06T17:16:55.105Z,16.70
2023-03-06T17:20:59.151Z,18.67
2023-03-06T17:25:38.631Z,21.57
2023-03-06T17:29:44.496Z,17.07
2023-03-06T17:33:48.532Z,17.77
2023-03-06T17:37:53.051Z,17.53
2023-03-06T17:41:56.630Z,15.80
2023-03-06T17:46:30.001Z,17.10
2023-03-06T17:50:33.651Z,17.37
2023-03-06T17:54:42.852Z,19.43
2023-03-06T17:58:46.712Z,20.17
2023-03-06T18:03:32.025Z,15.67
2023-03-06T18:08:27.031Z,19.00
2023-03-06T18:12:32.020Z,19.73
2023-03-06T18:16:36.735Z,19.23
2023-03-06T18:20:42.672Z,15.57
2023-03-06T18:24:46.230Z,15.87
2023-03-06T18:28:57.883Z,19.37
2023-03-06T18:33:01.487Z,14.13
2023-03-06T18:37:32.458Z,18.00
2023-03-06T18:41:36.860Z,20.50
2023-03-06T18:51:51.308Z,17.93
2023-03-06T18:56:21.224Z,14.67
2023-03-06T19:00:30.859Z,17.50
2023-03-06T19:04:34.509Z,18.20
2023-03-06T19:08:40.840Z,16.20
2023-03-06T19:12:44.397Z,12.73
2023-03-06T19:17:09.974Z,13.53
2023-03-06T19:21:16.020Z,17.50
2023-03-06T19:26:10.807Z,14.10
2023-03-06T19:30:17.994Z,13.93
2023-03-06T19:34:21.518Z,13.47
2023-03-06T19:38:25.124Z,15.03
2023-03-06T19:42:42.092Z,16.90
2023-03-06T19:46:47.232Z,15.10
2023-03-06T19:50:53.058Z,17.03
2023-03-06T19:54:56.618Z,17.33
2023-03-06T19:59:07.507Z,19.37
2023-03-06T20:03:12.527Z,15.53
2023-03-06T20:07:16.223Z,17.60
2023-03-06T20:11:21.649Z,15.43
2023-03-06T20:15:28.941Z,16.37
2023-03-06T20:19:34.040Z,13.50
2023-03-06T20:23:38.193Z,18.80
2023-03-06T20:27:42.863Z,16.07
2023-03-06T20:31:46.708Z,19.30
2023-03-06T20:35:51.774Z,17.10
2023-03-06T20:40:20.080Z,18.77
2023-03-06T20:44:28.349Z,17.00
2023-03-06T20:48:32.119Z,18.60
2023-03-06T20:52:37.096Z,17.17
2023-03-06T20:56:55.215Z,16.93
2023-03-06T21:01:01.370Z,19.60
2023-03-06T21:05:06.422Z,17.77
2023-03-06T21:09:12.696Z,18.40
2023-03-06T21:13:27.551Z,19.87
2023-03-06T21:17:31.071Z,17.03
2023-03-06T21:21:36.549Z,17.10
2023-03-06T21:25:50.137Z,17.93
2023-03-06T21:29:53.753Z,17.70
2023-03-06T21:33:58.892Z,19.93
2023-03-06T21:38:32.647Z,19.23
2023-03-06T21:42:37.865Z,17.33
2023-03-06T21:46:41.430Z,20.03
2023-03-06T21:50:47.095Z,18.63
2023-03-06T21:54:50.747Z,20.23
2023-03-06T21:58:56.381Z,17.53
2023-03-06T22:03:07.313Z,15.60
2023-03-06T22:07:16.046Z,16.53
2023-03-06T22:11:22.787Z,15.40
2023-03-06T22:15:27.869Z,18.07
2023-03-06T22:19:46.057Z,14.80
2023-03-06T22:23:50.996Z,14.50
2023-03-06T22:27:54.652Z,16.63
2023-03-06T22:33:05.925Z,15.23
2023-03-06T22:37:10.942Z,15.53
2023-03-06T22:41:40.153Z,16.10
2023-03-06T22:45:43.770Z,14.20
2023-03-06T22:49:50.608Z,12.67
2023-03-06T22:53:55.787Z,13.57
2023-03-06T22:58:49.735Z,15.63
2023-03-06T23:03:19.229Z,16.23
2023-03-06T23:07:22.846Z,15.67
2023-03-06T23:12:03.020Z,13.07
2023-03-06T23:16:25.594Z,14.80
2023-03-06T23:20:47.293Z,15.90
2023-03-06T23:25:10.374Z,13.47
2023-03-06T23:29:15.500Z,13.37
2023-03-06T23:33:45.159Z,16.13
2023-03-06T23:37:48.681Z,17.17
2023-03-06T23:41:54.036Z,15.50
2023-03-06T23:45:59.303Z,15.37
2023-03-06T23:50:33.506Z,13.73
2023-03-06T23:54:37.102Z,14.47
2023-03-06T23:58:45.719Z,12.33
